Kirksville, MO

5:09 AM CST on February 08, 2016 (GMT -0600)
Kirksville Regional | | Change Station
CLOSE
Current Station
Airport
Location: Kirksville,
Elevation: 965 ft
Nearby Weather Stations

Elev 965 ft 40.10 °N, 92.55 °W | Updated 14 minutes ago

Light Snow
Light Snow
25 °F
Feels Like 9 °F
N
26
Wind Variable Wind from WNW
Gusts 34 mph

Today
High -- | Low -- °F
--% Chance of Precip.
Yesterday
High -- | Low -- °F
Precip. -- in
Pressure 29.89 in
Visibility 10.0 miles
Clouds Scattered Clouds 3700 ft
Mostly Cloudy 7500 ft
Windchill 9 °F
Dew Point 13 °F
Humidity 60%
Rainfall 0.01 in
Snow Depth Not available.
7:12 AM 5:37 PM
Waning Crescent, 0% visible
METAR KIRK 081055Z AUTO 30023G30KT 10SM -SN SCT037 BKN075 M04/M11 A2985 RMK AO2 PK WND 31030/1032 SNB07 SLP120 P0001 T10391106 $
Pressure 29.89 in
Visibility 10.0 miles
Clouds Scattered Clouds 3700 ft
Mostly Cloudy 7500 ft
Windchill 9 °F
Dew Point 13 °F
Humidity 60%
Rainfall 0.01 in
Snow Depth Not available.
7:12 AM 5:37 PM
Waning Crescent, 0% visible
METAR KIRK 081055Z AUTO 30023G30KT 10SM -SN SCT037 BKN075 M04/M11 A2985 RMK AO2 PK WND 31030/1032 SNB07 SLP120 P0001 T10391106 $

10-Day Weather Forecast

Almanac

Astronomy

Feb. 08, 2016 Rise Set
Actual Time
Civil Twilight
Nautical Twilight
Astronomical Twilight
Moon
Length of Visible Light
Length of Day
Tomorrow will be .
, % of the Moon is Illuminated

Today's Extremes

State Highs State Lows

Community

WunderPhotos

Upload Photos

1,891,420 photos uploaded!

WunderBlog® & News

Nearby

Air Quality

  Air Quality AQ Index Pollutant
Not available.

Snow Depth

Station Depth Elevation

Earthquake Activity

City Distance Mag. Time & Date
Minimum magnitude displayed is 2.5.

Coastal Water Temperatures

Place Temperature

Stations

Nearby Weather Stations

Station Location Temp. Windchill Dew Point Humidity Wind Precip. Elev Updated Type
                   

Watches & Warnings

There are currently no watches in effect.